sensor_id;sensor_type;location;lat;lon;timestamp;P1;durP1;ratioP1;P2;durP2;ratioP2
52868;SDS011;39100;53.480;6.158;2024-03-08T00:01:30;23.10;;;11.35;;
52868;SDS011;39100;53.480;6.158;2024-03-08T00:03:56;23.45;;;10.25;;
52868;SDS011;39100;53.480;6.158;2024-03-08T00:06:21;21.02;;;10.13;;
52868;SDS011;39100;53.480;6.158;2024-03-08T00:08:47;22.15;;;11.32;;
52868;SDS011;39100;53.480;6.158;2024-03-08T00:11:13;18.77;;;10.77;;
52868;SDS011;39100;53.480;6.158;2024-03-08T00:13:38;20.23;;;10.80;;
52868;SDS011;39100;53.480;6.158;2024-03-08T00:16:04;19.98;;;10.25;;
52868;SDS011;39100;53.480;6.158;2024-03-08T00:18:30;24.02;;;10.90;;
52868;SDS011;39100;53.480;6.158;2024-03-08T00:20:55;20.60;;;10.70;;
52868;SDS011;39100;53.480;6.158;2024-03-08T00:23:21;23.27;;;11.60;;
52868;SDS011;39100;53.480;6.158;2024-03-08T00:25:46;22.40;;;10.13;;
52868;SDS011;39100;53.480;6.158;2024-03-08T00:28:12;23.92;;;11.68;;
52868;SDS011;39100;53.480;6.158;2024-03-08T00:30:40;26.25;;;11.82;;
52868;SDS011;39100;53.480;6.158;2024-03-08T00:33:05;21.85;;;11.32;;
52868;SDS011;39100;53.480;6.158;2024-03-08T00:35:31;21.05;;;11.30;;
52868;SDS011;39100;53.480;6.158;2024-03-08T00:37:56;19.55;;;10.45;;
52868;SDS011;39100;53.480;6.158;2024-03-08T00:40:22;23.15;;;11.25;;
52868;SDS011;39100;53.480;6.158;2024-03-08T00:42:48;19.85;;;10.90;;
52868;SDS011;39100;53.480;6.158;2024-03-08T00:45:13;20.95;;;10.75;;
52868;SDS011;39100;53.480;6.158;2024-03-08T00:47:39;19.58;;;11.13;;
52868;SDS011;39100;53.480;6.158;2024-03-08T00:50:07;26.35;;;11.63;;
52868;SDS011;39100;53.480;6.158;2024-03-08T00:52:33;20.48;;;10.85;;
52868;SDS011;39100;53.480;6.158;2024-03-08T00:54:59;20.52;;;10.68;;
52868;SDS011;39100;53.480;6.158;2024-03-08T00:57:25;23.25;;;10.40;;
52868;SDS011;39100;53.480;6.158;2024-03-08T00:59:50;22.55;;;10.75;;
52868;SDS011;39100;53.480;6.158;2024-03-08T01:02:17;22.70;;;10.82;;
52868;SDS011;39100;53.480;6.158;2024-03-08T01:04:44;22.70;;;11.70;;
52868;SDS011;39100;53.480;6.158;2024-03-08T01:07:09;23.13;;;11.05;;
52868;SDS011;39100;53.480;6.158;2024-03-08T01:09:35;21.63;;;10.68;;
52868;SDS011;39100;53.480;6.158;2024-03-08T01:12:01;24.48;;;11.82;;
52868;SDS011;39100;53.480;6.158;2024-03-08T01:14:26;22.98;;;10.85;;
52868;SDS011;39100;53.480;6.158;2024-03-08T01:16:53;21.67;;;11.65;;
52868;SDS011;39100;53.480;6.158;2024-03-08T01:19:20;22.08;;;11.82;;
52868;SDS011;39100;53.480;6.158;2024-03-08T01:21:45;17.92;;;9.85;;
52868;SDS011;39100;53.480;6.158;2024-03-08T01:24:11;17.52;;;9.43;;
52868;SDS011;39100;53.480;6.158;2024-03-08T01:26:37;17.50;;;8.82;;
52868;SDS011;39100;53.480;6.158;2024-03-08T01:29:03;22.55;;;10.98;;
52868;SDS011;39100;53.480;6.158;2024-03-08T01:31:29;25.23;;;12.85;;
52868;SDS011;39100;53.480;6.158;2024-03-08T01:33:55;21.83;;;11.35;;
52868;SDS011;39100;53.480;6.158;2024-03-08T01:36:21;25.33;;;11.85;;
52868;SDS011;39100;53.480;6.158;2024-03-08T01:38:48;19.75;;;10.30;;
52868;SDS011;39100;53.480;6.158;2024-03-08T01:41:14;20.45;;;11.13;;
52868;SDS011;39100;53.480;6.158;2024-03-08T01:43:41;21.20;;;10.95;;
52868;SDS011;39100;53.480;6.158;2024-03-08T01:46:06;18.73;;;9.80;;
52868;SDS011;39100;53.480;6.158;2024-03-08T01:48:34;20.15;;;10.23;;
52868;SDS011;39100;53.480;6.158;2024-03-08T01:51:00;21.20;;;12.32;;
52868;SDS011;39100;53.480;6.158;2024-03-08T01:53:26;17.52;;;9.63;;
52868;SDS011;39100;53.480;6.158;2024-03-08T01:55:54;20.80;;;10.60;;
52868;SDS011;39100;53.480;6.158;2024-03-08T01:58:22;20.08;;;9.90;;
52868;SDS011;39100;53.480;6.158;2024-03-08T02:00:48;21.30;;;11.38;;
52868;SDS011;39100;53.480;6.158;2024-03-08T02:03:15;19.17;;;10.93;;
52868;SDS011;39100;53.480;6.158;2024-03-08T02:05:44;18.63;;;10.18;;
52868;SDS011;39100;53.480;6.158;2024-03-08T02:08:09;20.35;;;10.43;;
52868;SDS011;39100;53.480;6.158;2024-03-08T02:10:41;16.80;;;8.98;;
52868;SDS011;39100;53.480;6.158;2024-03-08T02:13:08;18.67;;;9.30;;
52868;SDS011;39100;53.480;6.158;2024-03-08T02:18:24;17.83;;;9.85;;
52868;SDS011;39100;53.480;6.158;2024-03-08T02:23:19;19.45;;;9.80;;
52868;SDS011;39100;53.480;6.158;2024-03-08T02:25:45;21.83;;;11.68;;
52868;SDS011;39100;53.480;6.158;2024-03-08T02:28:12;22.42;;;10.50;;
52868;SDS011;39100;53.480;6.158;2024-03-08T02:30:39;20.02;;;10.40;;
52868;SDS011;39100;53.480;6.158;2024-03-08T02:33:05;18.52;;;8.88;;
52868;SDS011;39100;53.480;6.158;2024-03-08T02:35:31;18.10;;;9.35;;
52868;SDS011;39100;53.480;6.158;2024-03-08T02:37:58;21.95;;;9.98;;
52868;SDS011;39100;53.480;6.158;2024-03-08T02:40:24;18.50;;;10.13;;
52868;SDS011;39100;53.480;6.158;2024-03-08T02:42:50;16.55;;;9.43;;
52868;SDS011;39100;53.480;6.158;2024-03-08T02:45:15;15.75;;;8.93;;
52868;SDS011;39100;53.480;6.158;2024-03-08T02:47:41;23.85;;;10.32;;
52868;SDS011;39100;53.480;6.158;2024-03-08T02:50:06;20.45;;;10.05;;
52868;SDS011;39100;53.480;6.158;2024-03-08T02:52:36;17.30;;;9.30;;
52868;SDS011;39100;53.480;6.158;2024-03-08T02:55:01;19.35;;;9.18;;
52868;SDS011;39100;53.480;6.158;2024-03-08T02:57:27;15.40;;;8.07;;
52868;SDS011;39100;53.480;6.158;2024-03-08T02:59:53;13.32;;;8.20;;
52868;SDS011;39100;53.480;6.158;2024-03-08T03:02:19;15.70;;;8.98;;
52868;SDS011;39100;53.480;6.158;2024-03-08T03:04:45;17.95;;;8.90;;
52868;SDS011;39100;53.480;6.158;2024-03-08T03:07:10;19.00;;;8.40;;
52868;SDS011;39100;53.480;6.158;2024-03-08T03:09:36;17.10;;;9.45;;
52868;SDS011;39100;53.480;6.158;2024-03-08T03:12:02;18.00;;;9.57;;
52868;SDS011;39100;53.480;6.158;2024-03-08T03:14:27;18.20;;;10.18;;
52868;SDS011;39100;53.480;6.158;2024-03-08T03:16:53;17.75;;;10.00;;
52868;SDS011;39100;53.480;6.158;2024-03-08T03:19:19;18.38;;;9.40;;
52868;SDS011;39100;53.480;6.158;2024-03-08T03:21:45;15.63;;;9.15;;
52868;SDS011;39100;53.480;6.158;2024-03-08T03:24:12;17.98;;;9.48;;
52868;SDS011;39100;53.480;6.158;2024-03-08T03:26:41;14.63;;;8.20;;
52868;SDS011;39100;53.480;6.158;2024-03-08T03:29:08;17.27;;;9.00;;
52868;SDS011;39100;53.480;6.158;2024-03-08T03:31:36;18.95;;;8.75;;
52868;SDS011;39100;53.480;6.158;2024-03-08T03:34:01;16.00;;;8.35;;
52868;SDS011;39100;53.480;6.158;2024-03-08T03:36:31;18.15;;;9.70;;
52868;SDS011;39100;53.480;6.158;2024-03-08T03:38:58;17.95;;;8.88;;
52868;SDS011;39100;53.480;6.158;2024-03-08T03:41:34;16.98;;;9.63;;
52868;SDS011;39100;53.480;6.158;2024-03-08T03:44:00;14.93;;;7.72;;
52868;SDS011;39100;53.480;6.158;2024-03-08T03:46:26;13.55;;;6.68;;
52868;SDS011;39100;53.480;6.158;2024-03-08T03:48:52;13.45;;;7.97;;
52868;SDS011;39100;53.480;6.158;2024-03-08T03:51:19;12.88;;;7.07;;
52868;SDS011;39100;53.480;6.158;2024-03-08T03:53:45;14.00;;;8.00;;
52868;SDS011;39100;53.480;6.158;2024-03-08T03:56:10;14.32;;;7.40;;
52868;SDS011;39100;53.480;6.158;2024-03-08T03:58:36;17.60;;;8.57;;
52868;SDS011;39100;53.480;6.158;2024-03-08T04:01:04;16.95;;;8.35;;
52868;SDS011;39100;53.480;6.158;2024-03-08T04:03:30;15.02;;;8.45;;
52868;SDS011;39100;53.480;6.158;2024-03-08T04:05:55;18.40;;;8.68;;
52868;SDS011;39100;53.480;6.158;2024-03-08T04:08:21;15.38;;;8.00;;
52868;SDS011;39100;53.480;6.158;2024-03-08T04:10:48;17.50;;;8.23;;
52868;SDS011;39100;53.480;6.158;2024-03-08T04:13:14;17.35;;;8.57;;
52868;SDS011;39100;53.480;6.158;2024-03-08T04:15:40;16.75;;;8.02;;
52868;SDS011;39100;53.480;6.158;2024-03-08T04:18:09;17.10;;;8.52;;
52868;SDS011;39100;53.480;6.158;2024-03-08T04:20:34;13.13;;;7.45;;
52868;SDS011;39100;53.480;6.158;2024-03-08T04:23:00;17.10;;;8.23;;
52868;SDS011;39100;53.480;6.158;2024-03-08T04:25:27;15.35;;;8.07;;
52868;SDS011;39100;53.480;6.158;2024-03-08T04:27:52;18.48;;;8.65;;
52868;SDS011;39100;53.480;6.158;2024-03-08T04:30:18;14.27;;;7.43;;
52868;SDS011;39100;53.480;6.158;2024-03-08T04:32:46;23.42;;;9.75;;
52868;SDS011;39100;53.480;6.158;2024-03-08T04:35:12;15.55;;;8.73;;
52868;SDS011;39100;53.480;6.158;2024-03-08T04:37:38;15.88;;;8.32;;
52868;SDS011;39100;53.480;6.158;2024-03-08T04:40:04;17.33;;;8.35;;
52868;SDS011;39100;53.480;6.158;2024-03-08T04:42:30;16.70;;;7.72;;
52868;SDS011;39100;53.480;6.158;2024-03-08T04:44:58;15.23;;;8.38;;
52868;SDS011;39100;53.480;6.158;2024-03-08T04:47:24;15.30;;;8.05;;
52868;SDS011;39100;53.480;6.158;2024-03-08T04:49:50;14.35;;;7.60;;
52868;SDS011;39100;53.480;6.158;2024-03-08T04:52:16;17.27;;;8.23;;
52868;SDS011;39100;53.480;6.158;2024-03-08T04:54:41;14.75;;;8.27;;
52868;SDS011;39100;53.480;6.158;2024-03-08T04:57:09;14.57;;;8.07;;
52868;SDS011;39100;53.480;6.158;2024-03-08T04:59:35;16.10;;;7.85;;
52868;SDS011;39100;53.480;6.158;2024-03-08T05:02:01;14.68;;;7.90;;
52868;SDS011;39100;53.480;6.158;2024-03-08T05:04:27;15.65;;;8.07;;
52868;SDS011;39100;53.480;6.158;2024-03-08T05:06:54;15.80;;;8.10;;
52868;SDS011;39100;53.480;6.158;2024-03-08T05:09:20;14.27;;;7.60;;
52868;SDS011;39100;53.480;6.158;2024-03-08T05:11:46;14.60;;;8.13;;
52868;SDS011;39100;53.480;6.158;2024-03-08T05:14:12;14.98;;;7.45;;
52868;SDS011;39100;53.480;6.158;2024-03-08T05:16:42;15.95;;;8.15;;
52868;SDS011;39100;53.480;6.158;2024-03-08T05:19:08;15.23;;;8.68;;
52868;SDS011;39100;53.480;6.158;2024-03-08T05:21:34;14.73;;;7.55;;
52868;SDS011;39100;53.480;6.158;2024-03-08T05:23:59;17.52;;;8.43;;
52868;SDS011;39100;53.480;6.158;2024-03-08T05:26:25;19.65;;;8.70;;
52868;SDS011;39100;53.480;6.158;2024-03-08T05:28:50;17.45;;;8.90;;
52868;SDS011;39100;53.480;6.158;2024-03-08T05:31:20;15.98;;;9.13;;
52868;SDS011;39100;53.480;6.158;2024-03-08T05:33:48;16.13;;;9.00;;
52868;SDS011;39100;53.480;6.158;2024-03-08T05:36:14;15.70;;;7.55;;
52868;SDS011;39100;53.480;6.158;2024-03-08T05:38:42;18.20;;;8.55;;
52868;SDS011;39100;53.480;6.158;2024-03-08T05:41:08;14.00;;;8.45;;
52868;SDS011;39100;53.480;6.158;2024-03-08T05:43:34;16.70;;;8.90;;
52868;SDS011;39100;53.480;6.158;2024-03-08T05:46:00;16.15;;;8.60;;
52868;SDS011;39100;53.480;6.158;2024-03-08T05:48:26;16.52;;;8.77;;
52868;SDS011;39100;53.480;6.158;2024-03-08T05:50:53;13.10;;;8.02;;
52868;SDS011;39100;53.480;6.158;2024-03-08T05:53:18;17.48;;;8.77;;
52868;SDS011;39100;53.480;6.158;2024-03-08T05:55:44;20.42;;;9.60;;
52868;SDS011;39100;53.480;6.158;2024-03-08T05:58:10;16.95;;;9.32;;
52868;SDS011;39100;53.480;6.158;2024-03-08T06:00:36;15.98;;;9.00;;
52868;SDS011;39100;53.480;6.158;2024-03-08T06:03:02;16.98;;;9.05;;
52868;SDS011;39100;53.480;6.158;2024-03-08T06:05:28;15.73;;;7.78;;
52868;SDS011;39100;53.480;6.158;2024-03-08T06:07:53;16.02;;;8.15;;
52868;SDS011;39100;53.480;6.158;2024-03-08T06:10:19;15.52;;;8.82;;
52868;SDS011;39100;53.480;6.158;2024-03-08T06:12:45;17.15;;;8.65;;
52868;SDS011;39100;53.480;6.158;2024-03-08T06:15:11;15.57;;;8.07;;
52868;SDS011;39100;53.480;6.158;2024-03-08T06:17:42;13.48;;;8.40;;
52868;SDS011;39100;53.480;6.158;2024-03-08T06:20:08;14.40;;;7.93;;
52868;SDS011;39100;53.480;6.158;2024-03-08T06:22:38;17.85;;;8.48;;
52868;SDS011;39100;53.480;6.158;2024-03-08T06:25:07;15.07;;;8.45;;
52868;SDS011;39100;53.480;6.158;2024-03-08T06:27:33;17.02;;;9.68;;
52868;SDS011;39100;53.480;6.158;2024-03-08T06:30:02;17.80;;;8.65;;
52868;SDS011;39100;53.480;6.158;2024-03-08T06:32:29;14.02;;;7.82;;
52868;SDS011;39100;53.480;6.158;2024-03-08T06:34:55;16.55;;;7.57;;
52868;SDS011;39100;53.480;6.158;2024-03-08T06:37:21;18.80;;;8.55;;
52868;SDS011;39100;53.480;6.158;2024-03-08T06:39:50;17.38;;;8.43;;
52868;SDS011;39100;53.480;6.158;2024-03-08T06:42:20;18.48;;;9.13;;
52868;SDS011;39100;53.480;6.158;2024-03-08T06:44:45;18.65;;;9.30;;
52868;SDS011;39100;53.480;6.158;2024-03-08T06:47:17;17.88;;;9.38;;
52868;SDS011;39100;53.480;6.158;2024-03-08T06:49:43;16.15;;;8.40;;
52868;SDS011;39100;53.480;6.158;2024-03-08T06:52:09;16.05;;;8.88;;
52868;SDS011;39100;53.480;6.158;2024-03-08T06:54:35;15.27;;;8.15;;
52868;SDS011;39100;53.480;6.158;2024-03-08T06:57:02;19.38;;;8.88;;
52868;SDS011;39100;53.480;6.158;2024-03-08T06:59:28;16.75;;;9.30;;
52868;SDS011;39100;53.480;6.158;2024-03-08T07:01:54;16.63;;;9.25;;
52868;SDS011;39100;53.480;6.158;2024-03-08T07:04:20;16.55;;;8.80;;
52868;SDS011;39100;53.480;6.158;2024-03-08T07:06:47;20.23;;;9.98;;
52868;SDS011;39100;53.480;6.158;2024-03-08T07:09:15;17.80;;;8.93;;
52868;SDS011;39100;53.480;6.158;2024-03-08T07:11:43;18.90;;;10.15;;
52868;SDS011;39100;53.480;6.158;2024-03-08T07:14:09;20.60;;;10.40;;
52868;SDS011;39100;53.480;6.158;2024-03-08T07:16:34;18.95;;;9.95;;
52868;SDS011;39100;53.480;6.158;2024-03-08T07:19:01;18.20;;;10.52;;
52868;SDS011;39100;53.480;6.158;2024-03-08T07:21:26;19.08;;;9.77;;
52868;SDS011;39100;53.480;6.158;2024-03-08T07:23:52;20.52;;;11.13;;
52868;SDS011;39100;53.480;6.158;2024-03-08T07:26:38;17.05;;;9.52;;
52868;SDS011;39100;53.480;6.158;2024-03-08T07:29:04;19.55;;;10.80;;
52868;SDS011;39100;53.480;6.158;2024-03-08T07:31:29;21.08;;;10.73;;
52868;SDS011;39100;53.480;6.158;2024-03-08T07:34:18;20.55;;;10.77;;
52868;SDS011;39100;53.480;6.158;2024-03-08T07:36:43;20.60;;;11.05;;
52868;SDS011;39100;53.480;6.158;2024-03-08T07:39:09;20.67;;;11.75;;
52868;SDS011;39100;53.480;6.158;2024-03-08T07:41:37;17.63;;;9.70;;
52868;SDS011;39100;53.480;6.158;2024-03-08T07:44:05;18.60;;;10.00;;
52868;SDS011;39100;53.480;6.158;2024-03-08T07:46:34;20.70;;;10.68;;
52868;SDS011;39100;53.480;6.158;2024-03-08T07:49:00;23.00;;;12.00;;
52868;SDS011;39100;53.480;6.158;2024-03-08T07:51:25;18.50;;;10.40;;
52868;SDS011;39100;53.480;6.158;2024-03-08T07:53:51;20.90;;;10.85;;
52868;SDS011;39100;53.480;6.158;2024-03-08T07:56:17;19.58;;;10.13;;
52868;SDS011;39100;53.480;6.158;2024-03-08T07:58:43;25.33;;;13.23;;
52868;SDS011;39100;53.480;6.158;2024-03-08T08:01:16;20.38;;;11.45;;
52868;SDS011;39100;53.480;6.158;2024-03-08T08:03:45;19.48;;;10.73;;
52868;SDS011;39100;53.480;6.158;2024-03-08T08:06:12;22.83;;;11.38;;
52868;SDS011;39100;53.480;6.158;2024-03-08T08:08:43;24.50;;;12.35;;
52868;SDS011;39100;53.480;6.158;2024-03-08T08:11:09;16.95;;;10.35;;
52868;SDS011;39100;53.480;6.158;2024-03-08T08:13:36;19.40;;;11.75;;
52868;SDS011;39100;53.480;6.158;2024-03-08T08:16:04;19.58;;;11.50;;
52868;SDS011;39100;53.480;6.158;2024-03-08T08:18:33;21.92;;;11.27;;
52868;SDS011;39100;53.480;6.158;2024-03-08T08:21:01;20.35;;;11.02;;
52868;SDS011;39100;53.480;6.158;2024-03-08T08:23:27;19.30;;;10.75;;
52868;SDS011;39100;53.480;6.158;2024-03-08T08:25:54;20.25;;;10.70;;
52868;SDS011;39100;53.480;6.158;2024-03-08T08:28:20;20.35;;;11.40;;
52868;SDS011;39100;53.480;6.158;2024-03-08T08:30:46;24.92;;;12.23;;
52868;SDS011;39100;53.480;6.158;2024-03-08T08:33:12;20.58;;;11.05;;
52868;SDS011;39100;53.480;6.158;2024-03-08T08:35:40;19.95;;;11.25;;
52868;SDS011;39100;53.480;6.158;2024-03-08T08:38:05;19.48;;;11.85;;
52868;SDS011;39100;53.480;6.158;2024-03-08T08:40:33;21.15;;;11.68;;
52868;SDS011;39100;53.480;6.158;2024-03-08T08:43:01;19.13;;;11.63;;
52868;SDS011;39100;53.480;6.158;2024-03-08T08:45:29;21.17;;;12.10;;
52868;SDS011;39100;53.480;6.158;2024-03-08T08:47:55;19.48;;;11.30;;
52868;SDS011;39100;53.480;6.158;2024-03-08T08:50:21;18.08;;;11.10;;
52868;SDS011;39100;53.480;6.158;2024-03-08T08:52:51;21.55;;;12.20;;
52868;SDS011;39100;53.480;6.158;2024-03-08T08:55:18;29.73;;;15.35;;
52868;SDS011;39100;53.480;6.158;2024-03-08T08:57:46;25.02;;;12.40;;
52868;SDS011;39100;53.480;6.158;2024-03-08T09:00:13;25.70;;;12.52;;
52868;SDS011;39100;53.480;6.158;2024-03-08T09:02:41;24.35;;;14.23;;
52868;SDS011;39100;53.480;6.158;2024-03-08T09:05:07;22.75;;;12.48;;
52868;SDS011;39100;53.480;6.158;2024-03-08T09:07:33;19.48;;;11.10;;
52868;SDS011;39100;53.480;6.158;2024-03-08T09:09:59;21.05;;;11.48;;
52868;SDS011;39100;53.480;6.158;2024-03-08T09:12:25;19.83;;;10.63;;
52868;SDS011;39100;53.480;6.158;2024-03-08T09:14:51;20.02;;;9.93;;
52868;SDS011;39100;53.480;6.158;2024-03-08T09:17:17;21.30;;;11.07;;
52868;SDS011;39100;53.480;6.158;2024-03-08T09:19:46;20.85;;;12.20;;
52868;SDS011;39100;53.480;6.158;2024-03-08T09:22:12;22.83;;;12.23;;
52868;SDS011;39100;53.480;6.158;2024-03-08T09:24:38;20.42;;;12.43;;
52868;SDS011;39100;53.480;6.158;2024-03-08T09:27:04;19.92;;;10.50;;
52868;SDS011;39100;53.480;6.158;2024-03-08T09:29:30;18.50;;;11.02;;
52868;SDS011;39100;53.480;6.158;2024-03-08T09:31:55;21.85;;;12.23;;
52868;SDS011;39100;53.480;6.158;2024-03-08T09:34:21;22.13;;;12.27;;
52868;SDS011;39100;53.480;6.158;2024-03-08T09:36:47;20.27;;;11.98;;
52868;SDS011;39100;53.480;6.158;2024-03-08T09:39:12;21.98;;;11.73;;
52868;SDS011;39100;53.480;6.158;2024-03-08T09:41:44;18.83;;;10.75;;
52868;SDS011;39100;53.480;6.158;2024-03-08T09:44:13;25.17;;;11.40;;
52868;SDS011;39100;53.480;6.158;2024-03-08T09:46:39;20.35;;;11.20;;
52868;SDS011;39100;53.480;6.158;2024-03-08T09:49:05;21.15;;;12.27;;
52868;SDS011;39100;53.480;6.158;2024-03-08T09:51:33;24.23;;;12.77;;
52868;SDS011;39100;53.480;6.158;2024-03-08T09:54:00;23.63;;;12.43;;
52868;SDS011;39100;53.480;6.158;2024-03-08T09:56:29;19.17;;;11.15;;
52868;SDS011;39100;53.480;6.158;2024-03-08T09:58:59;20.15;;;10.70;;
52868;SDS011;39100;53.480;6.158;2024-03-08T10:01:36;19.13;;;10.52;;
52868;SDS011;39100;53.480;6.158;2024-03-08T10:04:03;24.27;;;12.60;;
52868;SDS011;39100;53.480;6.158;2024-03-08T10:06:29;17.55;;;10.80;;
52868;SDS011;39100;53.480;6.158;2024-03-08T10:08:56;22.05;;;11.77;;
52868;SDS011;39100;53.480;6.158;2024-03-08T10:11:22;19.27;;;10.98;;
52868;SDS011;39100;53.480;6.158;2024-03-08T10:13:49;20.23;;;11.32;;
52868;SDS011;39100;53.480;6.158;2024-03-08T10:16:15;19.85;;;10.85;;
52868;SDS011;39100;53.480;6.158;2024-03-08T10:18:47;18.25;;;11.05;;
52868;SDS011;39100;53.480;6.158;2024-03-08T10:21:12;27.98;;;14.38;;
52868;SDS011;39100;53.480;6.158;2024-03-08T10:23:40;22.23;;;12.93;;
52868;SDS011;39100;53.480;6.158;2024-03-08T10:26:16;24.80;;;14.00;;
52868;SDS011;39100;53.480;6.158;2024-03-08T10:28:44;27.02;;;14.52;;
52868;SDS011;39100;53.480;6.158;2024-03-08T10:31:11;21.15;;;12.80;;
52868;SDS011;39100;53.480;6.158;2024-03-08T10:33:36;24.83;;;13.93;;
52868;SDS011;39100;53.480;6.158;2024-03-08T10:36:05;22.15;;;12.45;;
52868;SDS011;39100;53.480;6.158;2024-03-08T10:38:32;26.80;;;13.85;;
52868;SDS011;39100;53.480;6.158;2024-03-08T10:41:01;24.77;;;13.40;;
52868;SDS011;39100;53.480;6.158;2024-03-08T10:43:28;21.83;;;11.95;;
52868;SDS011;39100;53.480;6.158;2024-03-08T10:46:06;25.80;;;13.55;;
52868;SDS011;39100;53.480;6.158;2024-03-08T10:48:47;22.70;;;12.50;;
52868;SDS011;39100;53.480;6.158;2024-03-08T10:51:15;21.17;;;12.32;;
52868;SDS011;39100;53.480;6.158;2024-03-08T10:53:41;25.77;;;13.38;;
52868;SDS011;39100;53.480;6.158;2024-03-08T10:56:08;18.83;;;11.65;;
52868;SDS011;39100;53.480;6.158;2024-03-08T10:58:35;21.38;;;12.50;;
52868;SDS011;39100;53.480;6.158;2024-03-08T11:01:01;22.70;;;14.05;;
52868;SDS011;39100;53.480;6.158;2024-03-08T11:06:06;24.98;;;13.73;;
52868;SDS011;39100;53.480;6.158;2024-03-08T11:08:41;16.98;;;11.38;;
52868;SDS011;39100;53.480;6.158;2024-03-08T11:11:22;25.73;;;14.10;;
52868;SDS011;39100;53.480;6.158;2024-03-08T11:13:52;19.60;;;11.75;;
52868;SDS011;39100;53.480;6.158;2024-03-08T11:18:54;18.65;;;11.00;;
52868;SDS011;39100;53.480;6.158;2024-03-08T11:21:24;18.65;;;11.05;;
52868;SDS011;39100;53.480;6.158;2024-03-08T11:24:07;19.58;;;11.48;;
52868;SDS011;39100;53.480;6.158;2024-03-08T11:26:37;18.60;;;12.02;;
52868;SDS011;39100;53.480;6.158;2024-03-08T11:32:08;20.73;;;11.65;;
52868;SDS011;39100;53.480;6.158;2024-03-08T11:34:40;20.52;;;12.02;;
52868;SDS011;39100;53.480;6.158;2024-03-08T11:37:11;21.65;;;13.98;;
52868;SDS011;39100;53.480;6.158;2024-03-08T11:39:46;21.90;;;12.10;;
52868;SDS011;39100;53.480;6.158;2024-03-08T11:42:14;19.63;;;11.02;;
52868;SDS011;39100;53.480;6.158;2024-03-08T11:44:42;18.02;;;11.32;;
52868;SDS011;39100;53.480;6.158;2024-03-08T11:47:09;20.67;;;12.57;;
52868;SDS011;39100;53.480;6.158;2024-03-08T11:49:36;16.63;;;10.73;;
52868;SDS011;39100;53.480;6.158;2024-03-08T11:52:03;19.23;;;11.77;;
52868;SDS011;39100;53.480;6.158;2024-03-08T11:54:29;23.67;;;13.60;;
52868;SDS011;39100;53.480;6.158;2024-03-08T11:56:55;19.45;;;12.65;;
52868;SDS011;39100;53.480;6.158;2024-03-08T11:59:28;20.02;;;12.50;;
52868;SDS011;39100;53.480;6.158;2024-03-08T12:02:02;19.27;;;12.85;;
52868;SDS011;39100;53.480;6.158;2024-03-08T12:04:29;20.95;;;12.38;;
52868;SDS011;39100;53.480;6.158;2024-03-08T12:06:57;21.48;;;13.27;;
52868;SDS011;39100;53.480;6.158;2024-03-08T12:09:26;20.35;;;12.40;;
52868;SDS011;39100;53.480;6.158;2024-03-08T12:11:52;21.52;;;12.52;;
52868;SDS011;39100;53.480;6.158;2024-03-08T12:14:18;23.35;;;13.15;;
52868;SDS011;39100;53.480;6.158;2024-03-08T12:16:44;20.85;;;12.60;;
52868;SDS011;39100;53.480;6.158;2024-03-08T12:19:09;23.83;;;12.90;;
52868;SDS011;39100;53.480;6.158;2024-03-08T12:21:35;20.83;;;11.80;;
52868;SDS011;39100;53.480;6.158;2024-03-08T12:24:03;20.70;;;12.75;;
52868;SDS011;39100;53.480;6.158;2024-03-08T12:26:36;19.08;;;12.48;;
52868;SDS011;39100;53.480;6.158;2024-03-08T12:29:20;17.45;;;12.15;;
52868;SDS011;39100;53.480;6.158;2024-03-08T12:31:56;16.25;;;11.30;;
52868;SDS011;39100;53.480;6.158;2024-03-08T12:34:25;17.45;;;10.88;;
52868;SDS011;39100;53.480;6.158;2024-03-08T12:36:57;14.57;;;9.43;;
52868;SDS011;39100;53.480;6.158;2024-03-08T12:39:23;13.77;;;9.23;;
52868;SDS011;39100;53.480;6.158;2024-03-08T12:41:52;15.45;;;10.77;;
52868;SDS011;39100;53.480;6.158;2024-03-08T12:44:18;16.92;;;10.65;;
52868;SDS011;39100;53.480;6.158;2024-03-08T12:46:46;16.33;;;10.90;;
52868;SDS011;39100;53.480;6.158;2024-03-08T12:49:13;14.88;;;10.48;;
52868;SDS011;39100;53.480;6.158;2024-03-08T12:51:42;18.55;;;11.35;;
52868;SDS011;39100;53.480;6.158;2024-03-08T12:54:09;17.58;;;12.25;;
52868;SDS011;39100;53.480;6.158;2024-03-08T12:56:35;17.63;;;11.77;;
52868;SDS011;39100;53.480;6.158;2024-03-08T12:59:02;16.55;;;10.65;;
52868;SDS011;39100;53.480;6.158;2024-03-08T13:01:28;15.20;;;9.43;;
52868;SDS011;39100;53.480;6.158;2024-03-08T13:03:57;20.08;;;11.73;;
52868;SDS011;39100;53.480;6.158;2024-03-08T13:06:27;12.90;;;10.05;;
52868;SDS011;39100;53.480;6.158;2024-03-08T13:08:54;16.65;;;11.63;;
52868;SDS011;39100;53.480;6.158;2024-03-08T13:11:23;16.00;;;10.70;;
52868;SDS011;39100;53.480;6.158;2024-03-08T13:13:49;13.77;;;9.60;;
52868;SDS011;39100;53.480;6.158;2024-03-08T13:16:16;15.45;;;10.50;;
52868;SDS011;39100;53.480;6.158;2024-03-08T13:18:44;13.80;;;9.82;;
52868;SDS011;39100;53.480;6.158;2024-03-08T13:21:10;13.10;;;9.98;;
52868;SDS011;39100;53.480;6.158;2024-03-08T13:23:38;12.52;;;9.45;;
52868;SDS011;39100;53.480;6.158;2024-03-08T13:26:06;13.32;;;9.60;;
52868;SDS011;39100;53.480;6.158;2024-03-08T13:28:32;14.63;;;9.60;;
52868;SDS011;39100;53.480;6.158;2024-03-08T13:31:02;13.23;;;8.65;;
52868;SDS011;39100;53.480;6.158;2024-03-08T13:33:39;10.35;;;7.82;;
52868;SDS011;39100;53.480;6.158;2024-03-08T13:36:07;11.70;;;7.28;;
52868;SDS011;39100;53.480;6.158;2024-03-08T13:38:40;19.55;;;10.23;;
52868;SDS011;39100;53.480;6.158;2024-03-08T13:41:12;12.60;;;9.05;;
52868;SDS011;39100;53.480;6.158;2024-03-08T13:43:40;13.73;;;9.38;;
52868;SDS011;39100;53.480;6.158;2024-03-08T13:46:06;15.23;;;9.88;;
52868;SDS011;39100;53.480;6.158;2024-03-08T13:48:32;14.80;;;9.77;;
52868;SDS011;39100;53.480;6.158;2024-03-08T13:50:58;11.20;;;7.75;;
52868;SDS011;39100;53.480;6.158;2024-03-08T13:53:25;11.93;;;7.85;;
52868;SDS011;39100;53.480;6.158;2024-03-08T13:55:51;14.48;;;9.20;;
52868;SDS011;39100;53.480;6.158;2024-03-08T13:58:17;14.55;;;9.00;;
52868;SDS011;39100;53.480;6.158;2024-03-08T14:00:42;14.23;;;9.05;;
52868;SDS011;39100;53.480;6.158;2024-03-08T14:03:11;15.00;;;9.20;;
52868;SDS011;39100;53.480;6.158;2024-03-08T14:05:40;13.07;;;8.70;;
52868;SDS011;39100;53.480;6.158;2024-03-08T14:08:07;17.92;;;10.13;;
52868;SDS011;39100;53.480;6.158;2024-03-08T14:10:34;14.27;;;8.88;;
52868;SDS011;39100;53.480;6.158;2024-03-08T14:13:02;14.95;;;9.40;;
52868;SDS011;39100;53.480;6.158;2024-03-08T14:15:30;14.43;;;9.73;;
52868;SDS011;39100;53.480;6.158;2024-03-08T14:17:56;16.08;;;9.85;;
52868;SDS011;39100;53.480;6.158;2024-03-08T14:20:22;16.88;;;9.93;;
52868;SDS011;39100;53.480;6.158;2024-03-08T14:22:52;15.65;;;10.13;;
52868;SDS011;39100;53.480;6.158;2024-03-08T14:25:21;16.98;;;10.63;;
52868;SDS011;39100;53.480;6.158;2024-03-08T14:27:49;15.63;;;10.38;;
52868;SDS011;39100;53.480;6.158;2024-03-08T14:30:18;16.27;;;9.77;;
52868;SDS011;39100;53.480;6.158;2024-03-08T14:32:58;16.15;;;10.48;;
52868;SDS011;39100;53.480;6.158;2024-03-08T14:35:25;18.63;;;11.50;;
52868;SDS011;39100;53.480;6.158;2024-03-08T14:37:51;15.02;;;9.73;;
52868;SDS011;39100;53.480;6.158;2024-03-08T14:40:17;13.70;;;9.68;;
52868;SDS011;39100;53.480;6.158;2024-03-08T14:42:47;17.00;;;10.75;;